createdAt,value
2023-05-23T03:03:43.615Z,98768.31
2023-05-23T03:04:46.451Z,98761.38
2023-05-23T03:05:49.404Z,98762.63
2023-05-23T03:06:54.349Z,98763.22
2023-05-23T03:07:57.730Z,98762.16
2023-05-23T03:08:59.801Z,98762.16
2023-05-23T03:10:02.719Z,98758.44
2023-05-23T03:11:04.608Z,98765.22
2023-05-23T03:12:07.911Z,98768.63
2023-05-23T03:13:09.809Z,98761.66
2023-05-23T03:14:12.623Z,98767.81
2023-05-23T03:15:14.631Z,98766.97
2023-05-23T03:16:18.759Z,98765.69
2023-05-23T03:17:21.130Z,98765.59
2023-05-23T03:18:23.918Z,98770.88
2023-05-23T03:19:27.233Z,98772.56
2023-05-23T03:20:30.160Z,98766.66
2023-05-23T03:21:32.781Z,98768.44
2023-05-23T03:22:35.590Z,98770.25
2023-05-23T03:23:38.264Z,98763.25
2023-05-23T03:24:41.010Z,98770.41
2023-05-23T03:25:43.424Z,98765.38
2023-05-23T03:26:46.176Z,98768.94
2023-05-23T03:27:48.024Z,98773.97
2023-05-23T03:28:51.124Z,98776.56
2023-05-23T03:29:56.834Z,98774.84
2023-05-23T03:30:59.622Z,98763.75
2023-05-23T03:32:01.601Z,98769.91
2023-05-23T03:33:04.738Z,98766.34
2023-05-23T03:34:06.776Z,98772.16
2023-05-23T03:35:11.508Z,98777.19
2023-05-23T03:36:14.992Z,98773.72
2023-05-23T03:37:16.979Z,98770.28
2023-05-23T03:38:20.381Z,98769.00
2023-05-23T03:39:23.299Z,98771.50
2023-05-23T03:40:26.491Z,98773.31
2023-05-23T03:41:28.330Z,98778.47
2023-05-23T03:42:32.146Z,98777.66
2023-05-23T03:43:34.020Z,98777.66
2023-05-23T03:44:37.067Z,98777.66
2023-05-23T03:45:41.698Z,98787.03
2023-05-23T03:46:48.932Z,98785.22
2023-05-23T03:47:52.259Z,98788.59
2023-05-23T03:48:55.379Z,98792.66
2023-05-23T03:49:58.048Z,98789.00
2023-05-23T03:51:07.083Z,98789.91
2023-05-23T03:52:08.953Z,98788.09
2023-05-23T03:53:13.977Z,98790.63
2023-05-23T03:54:20.692Z,98790.53
2023-05-23T03:55:24.152Z,98788.91
2023-05-23T03:56:26.323Z,98786.88
2023-05-23T03:57:29.265Z,98789.03
2023-05-23T03:58:31.301Z,98784.84
2023-05-23T03:59:42.250Z,98789.38
2023-05-23T04:00:46.656Z,98787.78
2023-05-23T04:01:50.759Z,98790.28
2023-05-23T04:02:54.421Z,98790.44
2023-05-23T04:04:01.151Z,98792.28
2023-05-23T04:05:07.393Z,98793.22
2023-05-23T04:06:14.505Z,98790.53
2023-05-23T04:07:19.132Z,98790.69
2023-05-23T04:08:23.106Z,98791.66
2023-05-23T04:09:26.277Z,98796.13
2023-05-23T04:10:29.696Z,98804.97
2023-05-23T04:11:31.785Z,98799.78
2023-05-23T04:12:34.546Z,98796.38
2023-05-23T04:13:37.247Z,98798.97
2023-05-23T04:14:40.375Z,98797.19
2023-05-23T04:15:45.037Z,98792.22
2023-05-23T04:16:48.587Z,98796.59
2023-05-23T04:17:51.491Z,98797.56
2023-05-23T04:18:55.403Z,98798.97
2023-05-23T04:19:57.518Z,98802.38
2023-05-23T04:21:01.004Z,98805.06
2023-05-23T04:22:05.604Z,98801.78
2023-05-23T04:23:08.382Z,98811.13
2023-05-23T04:24:13.726Z,98808.56
2023-05-23T04:25:18.804Z,98813.31
2023-05-23T04:26:27.825Z,98813.47
2023-05-23T04:27:30.863Z,98817.13
2023-05-23T04:28:33.946Z,98805.91
2023-05-23T04:29:38.290Z,98823.66
2023-05-23T04:30:40.343Z,98821.22
2023-05-23T04:31:45.965Z,98819.63
2023-05-23T04:32:48.313Z,98813.31
2023-05-23T04:33:51.812Z,98820.44
2023-05-23T04:34:56.837Z,98812.22
2023-05-23T04:36:00.771Z,98809.63
2023-05-23T04:37:02.903Z,98812.56
2023-05-23T04:38:08.692Z,98814.72
2023-05-23T04:39:10.625Z,98815.69
2023-05-23T04:40:19.099Z,98818.09
2023-05-23T04:41:36.678Z,98806.97
2023-05-23T04:42:52.656Z,98821.22
2023-05-23T04:44:10.126Z,98821.22
2023-05-23T04:45:17.657Z,98829.50
2023-05-23T04:46:29.532Z,98830.97
2023-05-23T04:47:45.378Z,98841.31
2023-05-23T04:48:53.386Z,98832.41
2023-05-23T04:49:57.612Z,98837.56
2023-05-23T04:51:02.211Z,98834.88
2023-05-23T04:52:06.247Z,98842.75
2023-05-23T04:53:09.794Z,98838.63
2023-05-23T04:54:13.124Z,98848.97
2023-05-23T04:55:15.780Z,98842.75
2023-05-23T04:56:21.999Z,98839.34
2023-05-23T04:57:24.068Z,98844.72
2023-05-23T04:58:26.863Z,98846.91
2023-05-23T04:59:32.484Z,98852.19
2023-05-23T05:00:36.003Z,98848.81
2023-05-23T06:02:52.065Z,98893.28
2023-05-23T06:04:05.517Z,98907.25
2023-05-23T06:05:12.169Z,98900.72
2023-05-23T06:06:15.015Z,98901.63
2023-05-23T06:07:17.709Z,98908.44
2023-05-23T06:08:21.652Z,98910.03
2023-05-23T06:09:23.961Z,98919.69
2023-05-23T06:10:29.393Z,98913.63
2023-05-23T06:11:32.622Z,98915.22
2023-05-23T06:12:34.979Z,98908.25
2023-05-23T06:13:37.729Z,98915.03
2023-05-23T06:14:39.793Z,98909.84
2023-05-23T06:15:42.827Z,98910.38
2023-05-23T06:16:45.964Z,98911.19
2023-05-23T06:17:49.275Z,98916.47
2023-05-23T06:18:52.179Z,98922.53
2023-05-23T06:20:04.991Z,98923.25
2023-05-23T06:21:08.789Z,98917.00
2023-05-23T06:22:12.468Z,98917.81
2023-05-23T06:23:14.338Z,98930.94
2023-05-23T06:24:17.330Z,98919.31
2023-05-23T06:25:20.423Z,98933.41
2023-05-23T06:26:23.630Z,98918.91
2023-05-23T06:27:27.427Z,98930.19
2023-05-23T06:28:30.180Z,98918.91
2023-05-23T06:29:31.960Z,98919.75
2023-05-23T06:30:38.942Z,98915.44
2023-05-23T06:31:44.085Z,98914.09
2023-05-23T06:32:46.093Z,98913.38
2023-05-23T06:33:51.382Z,98911.59
2023-05-23T06:34:54.187Z,98917.81
2023-05-23T06:35:56.128Z,98904.97
2023-05-23T06:36:58.855Z,98908.53
2023-05-23T06:38:02.003Z,98908.53
2023-05-23T06:39:04.081Z,98920.50
2023-05-23T06:40:07.370Z,98916.94
2023-05-23T06:41:09.416Z,98918.38
2023-05-23T06:42:13.228Z,98913.28
2023-05-23T06:43:30.644Z,98919.19
2023-05-23T06:44:48.160Z,98911.41
2023-05-23T06:45:51.339Z,98918.53
2023-05-23T06:46:57.543Z,98922.28
2023-05-23T06:48:01.167Z,98917.44
2023-05-23T06:49:14.451Z,98924.16
2023-05-23T06:50:19.966Z,98920.34
2023-05-23T06:51:23.446Z,98917.56
2023-05-23T06:52:26.306Z,98920.50
2023-05-23T06:53:29.179Z,98919.44
2023-05-23T06:54:32.154Z,98928.91
2023-05-23T06:55:34.020Z,98923.88
2023-05-23T06:56:37.109Z,98923.72
2023-05-23T06:57:39.879Z,98923.72
2023-05-23T06:58:43.678Z,98926.88
2023-05-23T06:59:47.056Z,98930.97
2023-05-23T07:00:49.830Z,98937.97
2023-05-23T07:01:57.439Z,98928.75
2023-05-23T07:03:01.381Z,98930.34
2023-05-23T07:04:04.919Z,98932.94
2023-05-23T07:05:08.145Z,98941.50
2023-05-23T07:06:21.534Z,98940.91
2023-05-23T07:07:24.362Z,98938.75
2023-05-23T07:08:26.605Z,98953.50
2023-05-23T07:09:34.435Z,98947.59
2023-05-23T07:10:44.785Z,98952.53
2023-05-23T07:11:59.971Z,98954.13
2023-05-23T07:13:01.933Z,98956.88
2023-05-23T07:14:05.949Z,98950.56
2023-05-23T07:15:13.599Z,98958.06
2023-05-23T07:16:26.132Z,98959.84
2023-05-23T07:17:37.050Z,98955.56
2023-05-23T07:18:40.440Z,98957.34
2023-05-23T07:19:46.779Z,98961.63
2023-05-23T07:20:50.306Z,98956.47
2023-05-23T07:21:55.729Z,98958.78
2023-05-23T07:22:58.487Z,98960.75
2023-05-23T07:24:01.228Z,98967.16
2023-05-23T07:25:04.968Z,98957.69
2023-05-23T07:26:10.402Z,98961.28
2023-05-23T07:27:20.001Z,98963.03
2023-05-23T07:28:22.215Z,98964.81
2023-05-23T07:29:25.711Z,98955.53
2023-05-23T07:30:29.575Z,98965.53
2023-05-23T07:31:34.324Z,98962.13
2023-05-23T07:32:37.726Z,98966.41
2023-05-23T07:33:40.884Z,98958.91
2023-05-23T07:34:47.342Z,98965.69
2023-05-23T07:35:49.363Z,98963.91
2023-05-23T07:36:52.066Z,98964.72
2023-05-23T07:37:56.959Z,98956.94
2023-05-23T07:38:59.267Z,98960.50
2023-05-23T07:40:02.358Z,98961.66
2023-05-23T07:41:11.522Z,98960.50
2023-05-23T07:42:15.589Z,98967.94
2023-05-23T07:43:18.325Z,98966.78
2023-05-23T07:44:23.953Z,98967.59
2023-05-23T07:45:28.092Z,98969.63
2023-05-23T07:46:30.657Z,98969.78
2023-05-23T07:47:33.577Z,98968.13
2023-05-23T07:48:35.664Z,98966.78
2023-05-23T07:49:39.435Z,98962.63
2023-05-23T07:50:43.761Z,98960.88
2023-05-23T07:51:45.698Z,98969.94
2023-05-23T07:52:51.258Z,98963.31
2023-05-23T07:53:58.782Z,98960.75
2023-05-23T07:55:01.821Z,98962.41
2023-05-23T07:56:03.782Z,98960.13
2023-05-23T07:57:11.839Z,98962.47
2023-05-23T07:58:14.905Z,98956.28
2023-05-23T07:59:17.012Z,98949.22
2023-05-23T08:00:22.416Z,98944.81
2023-05-23T08:01:29.900Z,98952.59
2023-05-23T08:02:37.635Z,98949.50
2023-05-23T08:03:40.384Z,98948.59
2023-05-23T08:04:50.079Z,98948.53
2023-05-23T08:05:55.159Z,98950.38
2023-05-23T08:07:05.133Z,98951.41
2023-05-23T08:08:18.186Z,98953.06
2023-05-23T08:09:20.976Z,98951.41
2023-05-23T08:10:28.318Z,98947.28
2023-05-23T08:11:33.036Z,98946.44
2023-05-23T08:12:36.382Z,98952.16
2023-05-23T08:13:47.526Z,98958.69
2023-05-23T08:15:11.592Z,98945.75
2023-05-23T08:16:18.962Z,98952.16
2023-05-23T08:17:22.140Z,98959.28
2023-05-23T08:18:24.244Z,98964.63
2023-05-23T08:19:27.552Z,98960.16
2023-05-23T08:20:32.151Z,98956.78
2023-05-23T08:21:37.567Z,98962.06
2023-05-23T08:22:40.524Z,98959.69
2023-05-23T08:23:42.384Z,98958.72
2023-05-23T08:24:45.229Z,98962.34
2023-05-23T08:25:48.326Z,98967.72
2023-05-23T08:26:50.581Z,98966.97
2023-05-23T08:27:53.981Z,98965.34
2023-05-23T08:29:11.898Z,98967.25
2023-05-23T08:30:14.436Z,98963.69
2023-05-23T08:31:17.255Z,98970.06
2023-05-23T08:32:19.709Z,98966.16
2023-05-23T08:33:22.566Z,98962.59
2023-05-23T08:34:25.620Z,98972.97
2023-05-23T08:35:29.380Z,98975.91
2023-05-23T08:36:34.201Z,98974.03
2023-05-23T08:37:38.546Z,98970.78
2023-05-23T08:38:41.360Z,98968.00
2023-05-23T08:39:49.904Z,98972.69
2023-05-23T08:41:18.221Z,98968.50
2023-05-23T08:42:21.623Z,98965.91
2023-05-23T08:43:23.666Z,98965.63
2023-05-23T08:44:26.736Z,98964.38
2023-05-23T08:45:34.659Z,98959.88
2023-05-23T08:46:45.749Z,98952.63
2023-05-23T08:47:56.549Z,98963.38
2023-05-23T08:49:01.121Z,98959.25
2023-05-23T08:50:08.126Z,98955.19
2023-05-23T08:51:12.362Z,98970.66
2023-05-23T08:52:16.930Z,98970.16
2023-05-23T08:53:28.093Z,98971.78
2023-05-23T08:54:37.997Z,98981.28
2023-05-23T08:55:41.923Z,98974.44
2023-05-23T08:56:44.200Z,98977.88
2023-05-23T08:57:48.258Z,98981.81
2023-05-23T08:59:03.386Z,98971.84
2023-05-23T09:00:10.800Z,98972.78
2023-05-23T09:01:14.762Z,98981.69
2023-05-23T09:02:18.950Z,98981.03
2023-05-23T09:03:23.227Z,98976.06
2023-05-23T09:04:43.230Z,98979.97
2023-05-23T09:05:51.564Z,98982.34
2023-05-23T09:06:55.719Z,98985.09
2023-05-23T09:07:59.633Z,98989.34
2023-05-23T09:09:05.054Z,98994.13
2023-05-23T09:10:09.775Z,98990.16
2023-05-23T09:11:13.002Z,98996.88
2023-05-23T09:12:16.564Z,98994.00
2023-05-23T09:13:52.647Z,98988.91
2023-05-23T09:14:57.831Z,99000.72
2023-05-23T09:16:03.714Z,98991.00
2023-05-23T09:17:11.294Z,98995.38
2023-05-23T09:18:14.474Z,98991.00
2023-05-23T09:19:17.435Z,98991.91
2023-05-23T09:20:54.835Z,98989.34
2023-05-23T09:21:58.661Z,98993.44
2023-05-23T09:23:06.223Z,99000.03
2023-05-23T09:24:10.413Z,98992.34
2023-05-23T09:25:13.309Z,98997.66
2023-05-23T09:26:16.937Z,99001.09
2023-05-23T09:27:19.736Z,98996.03
2023-05-23T09:28:23.724Z,98998.72
2023-05-23T09:29:26.577Z,98995.91
2023-05-23T09:30:29.927Z,98994.38
2023-05-23T09:31:33.780Z,99005.84
2023-05-23T09:32:37.664Z,98999.00
2023-05-23T09:33:44.454Z,98997.38
2023-05-23T09:34:57.624Z,99001.38
2023-05-23T09:36:01.156Z,99001.56
2023-05-23T09:37:04.991Z,99008.69
2023-05-23T09:38:08.222Z,99006.88
2023-05-23T09:39:13.282Z,99006.16
2023-05-23T09:40:16.387Z,99008.69
2023-05-23T09:41:26.563Z,99005.13
2023-05-23T09:42:33.162Z,98997.00
2023-05-23T09:43:36.335Z,99003.91
2023-05-23T09:44:42.361Z,99001.00
2023-05-23T09:45:45.557Z,99005.84
2023-05-23T09:46:52.822Z,99003.16
2023-05-23T09:47:56.848Z,99001.97
2023-05-23T09:49:00.295Z,99009.25
2023-05-23T09:50:02.509Z,99010.16
2023-05-23T09:51:07.033Z,99007.53
2023-05-23T09:52:08.855Z,98997.97
2023-05-23T09:53:11.971Z,99015.19
2023-05-23T09:54:15.255Z,98997.84
2023-05-23T09:55:18.041Z,99001.25
2023-05-23T09:56:21.173Z,99005.78
2023-05-23T09:57:24.993Z,99004.16
2023-05-23T09:58:30.189Z,99001.56
2023-05-23T09:59:35.102Z,99005.47
2023-05-23T10:00:38.640Z,99006.28
2023-05-23T10:01:43.530Z,99005.09
2023-05-23T10:02:55.053Z,99009.97
2023-05-23T10:04:00.463Z,99015.88
2023-05-23T10:05:05.273Z,99013.13
2023-05-23T10:06:11.768Z,99009.41
2023-05-23T10:07:15.923Z,99016.56
2023-05-23T10:08:22.035Z,99008.38
2023-05-23T10:09:28.022Z,99017.88
2023-05-23T10:10:32.103Z,99007.03
2023-05-23T10:12:04.543Z,99014.44
2023-05-23T10:13:07.515Z,99007.28
2023-05-23T10:14:10.813Z,99017.72
2023-05-23T10:15:17.434Z,99017.06
2023-05-23T10:16:23.331Z,99009.28
2023-05-23T10:17:35.717Z,99019.84
2023-05-23T10:18:44.155Z,99018.63
2023-05-23T10:19:55.685Z,99007.66
2023-05-23T10:21:06.690Z,99008.13
2023-05-23T10:22:11.288Z,98999.53
2023-05-23T10:23:14.810Z,99003.25
2023-05-23T10:24:17.116Z,98998.06
2023-05-23T10:25:21.409Z,99008.59
2023-05-23T10:26:23.549Z,99014.44
2023-05-23T10:27:26.810Z,99012.75
2023-05-23T10:28:29.810Z,99016.53
2023-05-23T10:29:33.886Z,99021.59
2023-05-23T10:30:36.796Z,99010.91
2023-05-23T10:31:39.557Z,99012.25
2023-05-23T10:32:44.072Z,99011.66
2023-05-23T10:33:53.787Z,99014.84
2023-05-23T10:35:00.469Z,99008.28
2023-05-23T10:36:14.100Z,99012.69
2023-05-23T10:37:22.003Z,99013.69
2023-05-23T10:38:33.904Z,99016.59
2023-05-23T10:39:46.569Z,99008.03
2023-05-23T10:40:56.341Z,99008.22
2023-05-23T10:42:04.163Z,99007.63
2023-05-23T10:43:17.975Z,99007.78
2023-05-23T10:44:26.082Z,99014.00
2023-05-23T10:45:29.163Z,99021.28
2023-05-23T10:46:52.539Z,99016.44
2023-05-23T10:47:55.531Z,99015.78
2023-05-23T10:48:59.068Z,99008.63
2023-05-23T10:50:01.359Z,99010.44
2023-05-23T10:51:06.062Z,99010.56
2023-05-23T10:52:10.154Z,99020.97
2023-05-23T10:53:17.595Z,99015.25
2023-05-23T10:54:21.265Z,99022.84
2023-05-23T10:55:23.306Z,99027.09
2023-05-23T10:56:32.544Z,99028.59
2023-05-23T10:57:34.449Z,99026.78
2023-05-23T10:58:39.630Z,99024.72
2023-05-23T10:59:41.816Z,99023.97
2023-05-23T11:00:53.090Z,99036.63
2023-05-23T11:01:57.146Z,99025.78
2023-05-23T11:03:01.584Z,99023.84
2023-05-23T11:04:07.349Z,99030.00
2023-05-23T11:05:20.049Z,99030.84
2023-05-23T11:06:33.208Z,99029.13
2023-05-23T11:07:36.352Z,99029.34
2023-05-23T11:08:47.645Z,99022.50
2023-05-23T11:10:04.737Z,99027.84
2023-05-23T11:11:07.624Z,99024.28
2023-05-23T11:12:11.687Z,99030.84
2023-05-23T11:13:13.594Z,99037.03
2023-05-23T11:14:16.379Z,99033.34
2023-05-23T11:15:20.675Z,99029.53
2023-05-23T11:16:28.398Z,99038.22
2023-05-23T11:17:32.807Z,99034.06
2023-05-23T11:18:35.363Z,99034.44
2023-05-23T11:19:38.379Z,99030.38
2023-05-23T11:20:41.645Z,99032.28
2023-05-23T11:21:45.691Z,99036.91
2023-05-23T11:22:55.938Z,99039.00
2023-05-23T11:23:58.537Z,99038.91
2023-05-23T11:25:03.008Z,99044.50
2023-05-23T11:26:04.968Z,99040.59
2023-05-23T11:27:14.565Z,99048.94
2023-05-23T11:28:18.412Z,99041.00
2023-05-23T11:29:21.438Z,99046.97
2023-05-23T11:30:24.659Z,99052.03
2023-05-23T11:31:27.032Z,99045.78
2023-05-23T11:32:31.415Z,99052.03
2023-05-23T11:33:34.286Z,99048.94
2023-05-23T11:34:38.332Z,99050.13
2023-05-23T11:35:42.436Z,99045.25
2023-05-23T11:36:44.460Z,99040.53
2023-05-23T11:37:47.672Z,99044.78
2023-05-23T11:38:50.217Z,99049.09
2023-05-23T11:39:52.941Z,99041.59
2023-05-23T11:40:55.816Z,99043.88
2023-05-23T11:42:01.246Z,99047.44
2023-05-23T11:43:07.297Z,99042.09
2023-05-23T11:44:13.107Z,99047.44
2023-05-23T11:45:15.894Z,99050.88
2023-05-23T11:46:18.718Z,99049.75
2023-05-23T11:47:21.615Z,99050.69
2023-05-23T11:48:24.470Z,99049.03
2023-05-23T11:49:28.665Z,99045.59
2023-05-23T11:50:31.396Z,99049.63
2023-05-23T11:51:33.347Z,99050.84
2023-05-23T11:52:36.276Z,99043.59
2023-05-23T11:53:38.623Z,99053.38
2023-05-23T11:54:41.736Z,99042.88
2023-05-23T11:55:50.267Z,99048.78
2023-05-23T11:56:52.713Z,99047.91
2023-05-23T11:57:58.095Z,99041.31
2023-05-23T11:59:01.283Z,99040.03
2023-05-23T12:00:04.783Z,99047.00
2023-05-23T12:01:08.193Z,99041.78
2023-05-23T12:02:11.086Z,99049.91
2023-05-23T12:03:13.360Z,99037.19
2023-05-23T12:04:16.455Z,99044.28
2023-05-23T12:05:19.699Z,99044.78
2023-05-23T12:06:24.694Z,99047.16
2023-05-23T12:07:26.823Z,99038.38
2023-05-23T12:08:29.679Z,99044.69
2023-05-23T12:09:33.680Z,99039.06
2023-05-23T12:10:36.675Z,99037.72
2023-05-23T12:11:40.753Z,99041.97
2023-05-23T12:12:44.544Z,99037.59
2023-05-23T12:13:46.697Z,99034.56
2023-05-23T12:14:50.790Z,99036.56
2023-05-23T12:15:56.270Z,99037.59
2023-05-23T12:16:59.392Z,99038.69
2023-05-23T12:18:01.972Z,99033.81
2023-05-23T12:19:06.806Z,99026.22
2023-05-23T12:20:12.515Z,99032.03
2023-05-23T12:21:14.408Z,99031.69
2023-05-23T12:22:24.598Z,99027.81
2023-05-23T12:23:28.552Z,99033.09
2023-05-23T12:24:31.270Z,99032.38
2023-05-23T12:25:39.977Z,99042.59
2023-05-23T12:26:51.872Z,99041.84
2023-05-23T12:27:56.221Z,99049.50
2023-05-23T12:29:00.033Z,99037.47
2023-05-23T12:30:09.207Z,99037.19
2023-05-23T12:31:12.744Z,99038.69
2023-05-23T12:32:15.862Z,99039.56
2023-05-23T12:33:19.180Z,99038.44
2023-05-23T12:34:24.768Z,99039.78
2023-05-23T12:35:26.914Z,99033.34
2023-05-23T12:36:32.231Z,99043.03
2023-05-23T12:37:35.065Z,99047.72
2023-05-23T12:38:38.175Z,99041.84
2023-05-23T12:39:44.319Z,99033.88
2023-05-23T12:40:47.124Z,99043.19
2023-05-23T12:41:49.809Z,99031.13
2023-05-23T12:42:52.754Z,99040.47
2023-05-23T12:43:57.190Z,99025.75
2023-05-23T12:45:01.142Z,99030.53
2023-05-23T12:46:31.995Z,99041.69
2023-05-23T12:47:36.123Z,99031.38
2023-05-23T12:48:41.392Z,99035.09
2023-05-23T12:49:46.761Z,99040.59
2023-05-23T12:50:50.788Z,99035.91
2023-05-23T12:51:54.614Z,99045.72
2023-05-23T12:52:58.165Z,99032.56
2023-05-23T12:54:01.613Z,99033.94
2023-05-23T12:55:06.319Z,99036.59
2023-05-23T12:56:11.194Z,99040.03
2023-05-23T12:57:14.481Z,99050.56
2023-05-23T12:58:16.654Z,99034.16
2023-05-23T12:59:20.508Z,99032.91
2023-05-23T13:00:23.424Z,99041.13
2023-05-23T13:01:27.774Z,99044.25
2023-05-23T13:02:32.268Z,99037.72
2023-05-23T13:03:36.844Z,99031.09
2023-05-23T13:04:39.646Z,99036.06
2023-05-23T13:05:44.034Z,99035.25
2023-05-23T13:06:47.840Z,99034.78
2023-05-23T13:07:50.319Z,99032.13
2023-05-23T13:08:54.865Z,99040.63
2023-05-23T13:09:58.631Z,99039.91
2023-05-23T13:11:03.020Z,99035.94
2023-05-23T13:12:07.540Z,99038.19
2023-05-23T13:13:10.275Z,99041.34
2023-05-23T13:14:14.718Z,99031.25
2023-05-23T13:15:18.115Z,99032.81
2023-05-23T13:16:23.339Z,99037.75
2023-05-23T13:17:27.833Z,99040.44
2023-05-23T13:18:36.559Z,99032.72
2023-05-23T13:19:40.439Z,99041.81
2023-05-23T13:20:45.417Z,99043.31
2023-05-23T13:21:50.405Z,99045.06
2023-05-23T13:22:58.669Z,99046.03
2023-05-23T13:24:03.471Z,99053.09
2023-05-23T13:25:10.810Z,99064.22
2023-05-23T13:26:16.584Z,99055.47
2023-05-23T13:27:20.152Z,99056.53
2023-05-23T13:28:26.003Z,99059.78
2023-05-23T13:29:31.158Z,99056.06
2023-05-23T13:30:37.446Z,99063.78
2023-05-23T13:31:43.989Z,99066.16
2023-05-23T13:32:51.567Z,99070.59
2023-05-23T13:33:59.058Z,99070.13
2023-05-23T13:35:04.602Z,99063.78
2023-05-23T13:36:09.092Z,99068.09
2023-05-23T13:37:14.277Z,99065.25
2023-05-23T13:38:20.127Z,99070.28
2023-05-23T13:39:24.183Z,99065.84
2023-05-23T13:40:29.083Z,99080.53
2023-05-23T13:41:35.030Z,99070.94
2023-05-23T13:42:39.584Z,99074.28
2023-05-23T13:43:45.118Z,99072.91
2023-05-23T13:44:49.520Z,99067.72
2023-05-23T13:45:54.705Z,99067.84
2023-05-23T13:47:13.254Z,99074.13
2023-05-23T13:48:18.898Z,99065.91
2023-05-23T13:49:24.840Z,99067.38
2023-05-23T13:50:31.033Z,99069.81
2023-05-23T13:51:38.274Z,99075.16
2023-05-23T13:52:46.513Z,99064.69
2023-05-23T13:53:52.957Z,99065.59
2023-05-23T13:55:00.506Z,99060.91
2023-05-23T13:56:06.670Z,99060.41
2023-05-23T13:57:11.435Z,99056.19
2023-05-23T13:58:17.275Z,99064.03
2023-05-23T13:59:22.611Z,99057.97
2023-05-23T14:00:28.739Z,99055.50
2023-05-23T14:01:33.760Z,99057.38
2023-05-23T14:02:39.581Z,99062.34
2023-05-23T14:03:45.413Z,99056.34
2023-05-23T14:04:54.653Z,99058.09
2023-05-23T14:06:00.775Z,99063.16
2023-05-23T14:07:06.103Z,99061.06
2023-05-23T14:08:14.030Z,99060.72
2023-05-23T14:09:19.875Z,99064.00
2023-05-23T14:10:26.639Z,99059.28
2023-05-23T14:11:31.707Z,99051.00
2023-05-23T14:12:35.005Z,99054.13
2023-05-23T14:13:39.695Z,99054.59
2023-05-23T14:14:42.564Z,99068.31
2023-05-23T14:15:46.884Z,99053.38
2023-05-23T14:16:51.930Z,99058.81
2023-05-23T14:17:58.129Z,99056.47
2023-05-23T14:19:01.937Z,99057.63
2023-05-23T14:20:08.006Z,99077.91
2023-05-23T14:21:10.879Z,99070.47
2023-05-23T14:22:16.209Z,99063.16
2023-05-23T14:23:21.469Z,99073.69
2023-05-23T14:24:25.381Z,99068.00
2023-05-23T14:25:31.082Z,99066.09
2023-05-23T14:26:36.139Z,99065.75
2023-05-23T14:27:43.565Z,99072.88
2023-05-23T14:28:48.186Z,99068.75
2023-05-23T14:29:54.305Z,99068.59
2023-05-23T14:30:59.976Z,99073.53
2023-05-23T14:32:06.874Z,99073.03
2023-05-23T14:33:13.169Z,99072.66
2023-05-23T14:34:17.847Z,99070.38
2023-05-23T14:35:26.770Z,99070.63
2023-05-23T14:36:31.482Z,99070.13
2023-05-23T14:37:37.910Z,99069.81
2023-05-23T14:38:46.466Z,99073.19
2023-05-23T14:39:51.065Z,99077.28
2023-05-23T14:40:57.021Z,99073.38
2023-05-23T14:42:03.193Z,99072.06
2023-05-23T14:43:08.840Z,99076.78
2023-05-23T14:44:13.672Z,99079.84
2023-05-23T14:45:19.584Z,99074.56
2023-05-23T14:46:24.345Z,99067.34
2023-05-23T14:47:30.856Z,99070.34
2023-05-23T14:48:36.168Z,99068.19
2023-05-23T14:49:42.389Z,99070.13
2023-05-23T14:50:49.149Z,99073.78
2023-05-23T14:51:55.442Z,99066.59
2023-05-23T14:53:02.434Z,99074.50
2023-05-23T14:54:07.534Z,99085.53
2023-05-23T14:55:13.521Z,99092.81
2023-05-23T14:56:19.536Z,99084.03
2023-05-23T14:57:24.890Z,99085.50
2023-05-23T14:58:31.245Z,99078.97
2023-05-23T14:59:37.132Z,99095.50
2023-05-23T15:00:43.844Z,99084.78
2023-05-23T15:01:49.993Z,99082.25
2023-05-23T15:02:56.614Z,99086.06
2023-05-23T15:04:01.934Z,99087.63
2023-05-23T15:05:09.987Z,99087.63
2023-05-23T15:06:19.464Z,99086.00
2023-05-23T15:07:27.275Z,99083.06
2023-05-23T15:08:35.882Z,99087.97
2023-05-23T15:09:43.725Z,99080.44
2023-05-23T15:10:49.282Z,99077.34
2023-05-23T15:11:55.931Z,99086.28
2023-05-23T15:13:04.200Z,99079.13
2023-05-23T15:14:09.394Z,99080.00
2023-05-23T15:15:17.689Z,99070.13
2023-05-23T15:16:24.557Z,99072.91
2023-05-23T15:17:31.588Z,99073.69
2023-05-23T15:18:41.855Z,99071.78
2023-05-23T15:19:48.868Z,99067.53
2023-05-23T15:20:55.271Z,99072.41
2023-05-23T15:22:02.921Z,99064.88
2023-05-23T15:23:11.153Z,99066.41
2023-05-23T15:24:17.804Z,99067.38
2023-05-23T15:25:43.322Z,99070.47
2023-05-23T15:26:53.612Z,99065.28
2023-05-23T15:28:00.159Z,99063.31
2023-05-23T15:29:08.873Z,99068.69
2023-05-23T15:30:18.213Z,99063.66
2023-05-23T15:31:25.784Z,99057.72
2023-05-23T15:32:32.773Z,99063.50
2023-05-23T15:33:39.327Z,99070.06
2023-05-23T15:34:45.668Z,99057.16
2023-05-23T15:35:52.114Z,99064.22
2023-05-23T15:36:57.256Z,99060.06
2023-05-23T15:38:05.660Z,99052.63
2023-05-23T15:39:13.396Z,99060.88
2023-05-23T15:40:23.549Z,99058.44
2023-05-23T15:41:30.910Z,99049.03
2023-05-23T15:42:38.338Z,99049.81
2023-05-23T15:43:45.170Z,99047.56
2023-05-23T15:44:51.788Z,99054.72
2023-05-23T15:45:58.477Z,99052.66
2023-05-23T15:47:04.419Z,99050.00
2023-05-23T15:48:12.698Z,99050.28
2023-05-23T15:49:26.576Z,99051.63
2023-05-23T15:50:35.826Z,99055.84
2023-05-23T15:51:41.866Z,99057.38
2023-05-23T15:52:48.860Z,99053.63
2023-05-23T15:54:01.683Z,99054.53
2023-05-23T15:55:09.902Z,99055.09
2023-05-23T15:56:17.400Z,99044.16
2023-05-23T15:57:23.757Z,99046.38
2023-05-23T15:58:32.805Z,99050.75
2023-05-23T15:59:39.166Z,99051.44
2023-05-23T16:00:46.769Z,99062.00
2023-05-23T16:01:52.128Z,99050.28
2023-05-23T16:02:58.842Z,99056.66
2023-05-23T16:04:04.117Z,99057.38
2023-05-23T16:05:11.630Z,99054.56
2023-05-23T16:06:18.885Z,99055.97
2023-05-23T16:07:26.776Z,99062.81
2023-05-23T16:08:34.320Z,99062.97
2023-05-23T16:09:42.716Z,99055.97
2023-05-23T16:10:48.480Z,99057.69
2023-05-23T16:11:57.909Z,99047.31
2023-05-23T16:13:05.526Z,99058.66
2023-05-23T16:14:10.955Z,99046.97
2023-05-23T16:15:17.413Z,99046.84
2023-05-23T16:16:22.758Z,99052.44
2023-05-23T16:17:29.114Z,99052.28
2023-05-23T16:18:35.687Z,99052.13
2023-05-23T16:19:42.000Z,99045.63
2023-05-23T16:20:48.713Z,99044.31
2023-05-23T16:21:54.031Z,99046.91
2023-05-23T16:23:00.541Z,99042.66
2023-05-23T16:24:06.199Z,99052.88
2023-05-23T16:25:14.883Z,99040.00
2023-05-23T16:26:20.949Z,99045.44
2023-05-23T16:27:27.242Z,99047.59
2023-05-23T16:28:32.228Z,99048.19
2023-05-23T16:29:38.774Z,99051.91
2023-05-23T16:30:43.960Z,99055.38
2023-05-23T16:31:50.407Z,99046.84
2023-05-23T16:32:56.316Z,99055.00
2023-05-23T16:34:02.860Z,99045.75
2023-05-23T16:35:08.623Z,99038.19
2023-05-23T16:36:15.034Z,99051.22
2023-05-23T16:37:20.243Z,99045.00
2023-05-23T16:38:26.924Z,99049.25
2023-05-23T16:39:32.449Z,99052.34
2023-05-23T16:40:42.096Z,99043.13
2023-05-23T16:41:49.474Z,99041.19
2023-05-23T16:42:56.632Z,99046.19
2023-05-23T16:44:03.110Z,99046.84
2023-05-23T16:45:09.834Z,99046.72
2023-05-23T16:46:17.836Z,99055.34
2023-05-23T16:47:25.138Z,99041.94
2023-05-23T16:48:35.072Z,99047.97
2023-05-23T16:49:40.668Z,99045.22
2023-05-23T16:50:47.248Z,99047.59
2023-05-23T16:51:52.802Z,99047.72
2023-05-23T16:52:59.859Z,99043.13
2023-05-23T16:54:05.813Z,99055.84